createdAt,value
2023-02-13T00:00:41.748Z,30.97
2023-02-13T00:03:08.946Z,34.93
2023-02-13T00:05:36.390Z,32.43
2023-02-13T00:08:03.896Z,31.80
2023-02-13T00:10:31.326Z,30.03
2023-02-13T00:12:58.836Z,36.33
2023-02-13T00:15:26.043Z,32.23
2023-02-13T00:17:53.275Z,36.23
2023-02-13T00:20:21.533Z,31.87
2023-02-13T00:22:48.697Z,32.43
2023-02-13T00:25:16.205Z,36.70
2023-02-13T00:27:43.594Z,31.20
2023-02-13T00:30:11.272Z,26.30
2023-02-13T00:32:38.616Z,25.53
2023-02-13T00:35:06.110Z,28.80
2023-02-13T00:37:34.070Z,27.47
2023-02-13T00:40:01.423Z,33.63
2023-02-13T00:42:28.783Z,31.57
2023-02-13T00:44:56.218Z,27.93
2023-02-13T00:47:23.813Z,32.67
2023-02-13T00:49:51.314Z,26.47
2023-02-13T00:52:18.576Z,30.77
2023-02-13T00:54:47.704Z,30.47
2023-02-13T00:57:15.253Z,27.63
2023-02-13T00:59:42.531Z,31.83
2023-02-13T01:02:10.068Z,34.13
2023-02-13T01:04:37.605Z,26.90
2023-02-13T01:07:04.987Z,27.00
2023-02-13T01:09:32.386Z,33.63
2023-02-13T01:11:59.689Z,32.07
2023-02-13T01:14:27.113Z,34.90
2023-02-13T01:16:54.528Z,29.90
2023-02-13T01:19:21.757Z,33.50
2023-02-13T01:21:49.163Z,34.47
2023-02-13T01:24:16.430Z,32.00
2023-02-13T01:26:43.909Z,30.23
2023-02-13T01:29:15.581Z,31.83
2023-02-13T01:31:43.119Z,28.83
2023-02-13T01:34:10.292Z,27.50
2023-02-13T01:36:37.694Z,25.67
2023-02-13T01:39:05.096Z,25.63
2023-02-13T01:41:32.471Z,27.10
2023-02-13T01:44:00.801Z,29.00
2023-02-13T01:46:36.010Z,32.13
2023-02-13T01:49:11.638Z,32.00
2023-02-13T01:51:39.137Z,29.23
2023-02-13T01:54:11.448Z,28.87
2023-02-13T01:56:49.539Z,30.77
2023-02-13T01:59:21.797Z,34.20
2023-02-13T02:01:49.225Z,26.67
2023-02-13T02:04:22.955Z,29.50
2023-02-13T02:06:52.339Z,22.83
2023-02-13T02:09:21.573Z,22.00
2023-02-13T02:12:02.145Z,21.83
2023-02-13T02:14:29.630Z,27.97
2023-02-13T02:16:57.782Z,24.93
2023-02-13T02:20:02.612Z,27.10
2023-02-13T02:22:57.501Z,28.40
2023-02-13T02:25:58.540Z,23.23
2023-02-13T02:28:44.500Z,22.43
2023-02-13T02:31:42.510Z,24.67
2023-02-13T02:34:31.275Z,23.07
2023-02-13T02:37:05.541Z,25.60
2023-02-13T02:39:37.561Z,28.07
2023-02-13T02:42:35.527Z,28.73
2023-02-13T02:45:11.824Z,23.90
2023-02-13T02:48:13.197Z,20.33
2023-02-13T02:50:44.143Z,22.60
2023-02-13T02:53:29.636Z,26.13
2023-02-13T02:56:06.124Z,23.77
2023-02-13T02:59:11.335Z,17.97
2023-02-13T03:01:57.176Z,24.07
2023-02-13T03:05:02.231Z,25.87
2023-02-13T03:07:29.427Z,26.60
2023-02-13T03:10:24.218Z,24.47
2023-02-13T03:13:10.617Z,27.43
2023-02-13T03:15:59.734Z,27.30
2023-02-13T03:18:45.750Z,23.43
2023-02-13T03:21:51.944Z,22.83
2023-02-13T03:24:28.927Z,28.60
2023-02-13T03:27:40.929Z,27.27
2023-02-13T03:30:23.633Z,28.43
2023-02-13T03:32:54.289Z,29.17
2023-02-13T03:35:47.338Z,26.93
2023-02-13T03:38:26.371Z,20.63
2023-02-13T03:41:21.580Z,28.13
2023-02-13T03:44:15.033Z,29.13
2023-02-13T03:46:44.519Z,27.13
2023-02-13T03:49:48.773Z,26.83
2023-02-13T03:52:36.144Z,28.07
2023-02-13T03:55:32.231Z,25.07
2023-02-13T03:58:20.020Z,26.70
2023-02-13T04:00:52.708Z,26.47
2023-02-13T04:03:34.183Z,26.60
2023-02-13T04:06:22.388Z,23.87
2023-02-13T04:08:49.598Z,19.13
2023-02-13T04:11:22.254Z,16.03
2023-02-13T04:14:11.688Z,19.83
2023-02-13T04:16:52.755Z,19.53
2023-02-13T04:19:20.400Z,23.53
2023-02-13T04:21:50.262Z,24.70
2023-02-13T04:24:17.727Z,25.33
2023-02-13T04:26:46.579Z,24.27
2023-02-13T04:29:14.036Z,27.80
2023-02-13T04:31:41.618Z,26.97
2023-02-13T04:34:09.091Z,29.33
2023-02-13T04:36:36.268Z,19.93
2023-02-13T04:39:03.753Z,28.10
2023-02-13T04:41:31.001Z,16.17
2023-02-13T04:43:58.260Z,18.83
2023-02-13T04:46:25.993Z,26.43
2023-02-13T04:48:53.279Z,24.83
2023-02-13T04:51:20.629Z,28.07
2023-02-13T04:53:47.843Z,35.20
2023-02-13T04:56:15.294Z,23.90
2023-02-13T04:58:42.625Z,23.67
2023-02-13T05:01:14.473Z,26.30
2023-02-13T05:03:41.990Z,20.90
2023-02-13T05:06:09.537Z,19.20
2023-02-13T05:08:36.794Z,25.37
2023-02-13T05:11:04.501Z,25.73
2023-02-13T05:13:31.724Z,19.13
2023-02-13T05:15:59.256Z,22.17
2023-02-13T05:18:26.804Z,21.10
2023-02-13T05:21:17.296Z,25.70
2023-02-13T05:23:44.882Z,24.73
2023-02-13T05:26:12.435Z,24.93
2023-02-13T05:28:58.533Z,23.93
2023-02-13T05:31:25.819Z,31.03
2023-02-13T05:33:53.341Z,27.40
2023-02-13T05:36:20.854Z,27.93
2023-02-13T05:38:48.246Z,24.83
2023-02-13T05:41:15.998Z,26.43
2023-02-13T05:43:43.351Z,21.40
2023-02-13T05:46:10.768Z,20.33
2023-02-13T05:48:38.041Z,23.13
2023-02-13T05:51:05.908Z,18.37
2023-02-13T05:53:37.706Z,18.40
2023-02-13T05:56:05.750Z,26.37
2023-02-13T05:58:33.366Z,19.40
2023-02-13T06:01:00.823Z,18.50
2023-02-13T06:03:30.098Z,25.83
2023-02-13T06:05:57.441Z,22.03
2023-02-13T06:08:25.003Z,22.60
2023-02-13T06:10:52.360Z,20.43
2023-02-13T06:13:19.890Z,20.17
2023-02-13T06:15:47.408Z,22.53
2023-02-13T06:18:14.791Z,26.67
2023-02-13T06:20:42.223Z,22.57
2023-02-13T06:23:09.602Z,19.30
2023-02-13T06:25:37.148Z,15.27
2023-02-13T06:28:05.394Z,17.80
2023-02-13T06:30:32.879Z,20.10
2023-02-13T06:33:00.284Z,15.23
2023-02-13T06:35:28.077Z,14.10
2023-02-13T06:37:55.437Z,14.80
2023-02-13T06:40:22.737Z,16.40
2023-02-13T06:42:50.120Z,13.03
2023-02-13T06:45:17.660Z,10.13
2023-02-13T06:47:46.328Z,13.63
2023-02-13T06:50:14.451Z,20.40
2023-02-13T06:52:47.103Z,20.50
2023-02-13T06:55:15.043Z,23.37
2023-02-13T06:57:43.238Z,28.10
2023-02-13T07:00:13.568Z,21.90
2023-02-13T07:02:41.992Z,31.17
2023-02-13T07:05:09.540Z,40.50
2023-02-13T07:07:37.605Z,41.47
2023-02-13T07:10:05.713Z,43.73
2023-02-13T07:12:36.944Z,45.20
2023-02-13T07:15:05.095Z,41.73
2023-02-13T07:17:32.583Z,42.63
2023-02-13T07:20:00.005Z,39.37
2023-02-13T07:22:27.427Z,36.67
2023-02-13T07:24:55.041Z,43.00
2023-02-13T07:27:22.382Z,40.63
2023-02-13T07:29:49.529Z,39.60
2023-02-13T07:32:16.980Z,42.43
2023-02-13T07:34:59.639Z,49.83
2023-02-13T07:37:29.516Z,43.53
2023-02-13T07:39:56.851Z,39.13
2023-02-13T07:42:24.318Z,43.20
2023-02-13T07:44:51.848Z,40.70
2023-02-13T07:47:20.295Z,46.07
2023-02-13T07:49:48.377Z,42.10
2023-02-13T07:52:16.405Z,43.87
2023-02-13T07:54:47.977Z,42.73
2023-02-13T07:57:16.217Z,40.23
2023-02-13T07:59:44.361Z,40.60
2023-02-13T08:02:15.517Z,39.77
2023-02-13T08:04:46.621Z,43.50
2023-02-13T08:07:14.996Z,37.13
2023-02-13T08:10:02.455Z,40.97
2023-02-13T08:12:29.719Z,38.90
2023-02-13T08:14:59.200Z,37.13
2023-02-13T08:17:26.714Z,40.77
2023-02-13T08:19:55.356Z,37.33
2023-02-13T08:22:22.692Z,33.50
2023-02-13T08:24:49.913Z,37.03
2023-02-13T08:27:17.184Z,34.93
2023-02-13T08:29:44.652Z,33.67
2023-02-13T08:32:12.141Z,32.90
2023-02-13T08:34:39.475Z,33.30
2023-02-13T08:37:06.976Z,30.23
2023-02-13T08:39:34.430Z,32.97
2023-02-13T08:42:01.657Z,30.80
2023-02-13T08:44:29.029Z,31.50
2023-02-13T08:46:59.149Z,29.90
2023-02-13T08:49:26.834Z,29.80
2023-02-13T08:51:54.286Z,27.83
2023-02-13T08:54:21.517Z,30.53
2023-02-13T08:56:48.956Z,28.63
2023-02-13T08:59:16.502Z,33.13
2023-02-13T09:01:44.127Z,24.83
2023-02-13T09:04:11.577Z,24.63
2023-02-13T09:06:39.073Z,18.97
2023-02-13T09:09:06.810Z,21.53
2023-02-13T09:11:34.257Z,21.47
2023-02-13T09:14:01.496Z,22.33
2023-02-13T09:16:28.803Z,21.77
2023-02-13T09:18:56.210Z,20.03
2023-02-13T09:21:24.163Z,20.80
2023-02-13T09:23:51.910Z,17.33
2023-02-13T09:26:20.859Z,19.13
2023-02-13T09:28:48.330Z,17.97
2023-02-13T09:31:20.651Z,18.27
2023-02-13T09:33:48.679Z,15.57
2023-02-13T09:36:19.573Z,15.37
2023-02-13T09:38:47.919Z,17.17
2023-02-13T09:41:29.523Z,15.00
2023-02-13T09:44:36.726Z,16.07
2023-02-13T09:47:19.233Z,14.13
2023-02-13T09:49:51.737Z,12.97
2023-02-13T09:52:19.182Z,11.23
2023-02-13T09:54:46.429Z,16.93
2023-02-13T09:57:35.639Z,19.47
2023-02-13T10:00:33.864Z,11.77
2023-02-13T10:03:20.376Z,9.20
2023-02-13T10:05:49.479Z,7.73
2023-02-13T10:08:34.134Z,12.10
2023-02-13T10:11:23.348Z,12.13
2023-02-13T10:14:16.895Z,21.43
2023-02-13T10:16:47.703Z,13.07
2023-02-13T10:19:33.714Z,11.10
2023-02-13T10:22:18.954Z,15.00
2023-02-13T10:24:55.819Z,13.80
2023-02-13T10:27:35.454Z,14.97
2023-02-13T10:30:07.326Z,7.90
2023-02-13T10:32:45.256Z,6.67
2023-02-13T10:35:20.150Z,9.43
2023-02-13T10:37:51.430Z,10.17
2023-02-13T10:40:19.046Z,8.03
2023-02-13T10:42:59.510Z,10.27
2023-02-13T10:45:49.451Z,8.43
2023-02-13T10:48:27.727Z,7.47
2023-02-13T10:51:03.625Z,6.70
2023-02-13T10:53:52.055Z,7.43
2023-02-13T10:56:31.206Z,6.50
2023-02-13T10:59:09.446Z,6.57
2023-02-13T11:01:42.653Z,7.83
2023-02-13T11:04:15.650Z,6.97
2023-02-13T11:07:01.111Z,9.80
2023-02-13T11:09:28.437Z,6.40
2023-02-13T11:11:55.915Z,14.13
2023-02-13T11:14:24.874Z,8.73
2023-02-13T11:17:00.796Z,10.13
2023-02-13T11:19:35.068Z,9.70
2023-02-13T11:22:46.948Z,8.00
2023-02-13T11:25:25.869Z,9.00
2023-02-13T11:28:07.511Z,8.80
2023-02-13T11:30:36.512Z,8.37
2023-02-13T11:33:21.707Z,8.47
2023-02-13T11:35:49.392Z,6.97
2023-02-13T11:38:18.452Z,8.17
2023-02-13T11:41:05.058Z,6.87
2023-02-13T11:44:15.918Z,7.83
2023-02-13T11:46:48.069Z,7.50
2023-02-13T11:49:23.324Z,6.03
2023-02-13T11:52:29.720Z,9.07
2023-02-13T11:55:05.601Z,8.40
2023-02-13T11:57:37.178Z,7.80
2023-02-13T12:00:31.000Z,10.70
2023-02-13T12:02:58.772Z,7.67
2023-02-13T12:05:27.751Z,7.20
2023-02-13T12:07:58.234Z,8.73
2023-02-13T12:10:27.663Z,6.80
2023-02-13T12:13:21.518Z,7.50
2023-02-13T12:15:51.077Z,11.13
2023-02-13T12:18:32.236Z,9.50
2023-02-13T12:21:06.237Z,8.30
2023-02-13T12:23:38.620Z,8.10
2023-02-13T12:26:23.792Z,9.40
2023-02-13T12:28:58.155Z,15.67
2023-02-13T12:31:53.117Z,34.17
2023-02-13T12:34:41.077Z,20.20
2023-02-13T12:37:29.787Z,9.80
2023-02-13T12:40:00.196Z,9.43
2023-02-13T12:43:04.896Z,10.70
2023-02-13T12:45:42.609Z,11.90
2023-02-13T12:48:31.121Z,7.17
2023-02-13T12:51:10.647Z,6.30
2023-02-13T12:54:17.324Z,7.00
2023-02-13T12:57:15.345Z,9.77
2023-02-13T12:59:48.833Z,6.93
2023-02-13T13:02:52.831Z,5.53
2023-02-13T13:05:37.332Z,8.70
2023-02-13T13:08:16.213Z,5.67
2023-02-13T13:10:46.660Z,4.30
2023-02-13T13:13:42.034Z,4.97
2023-02-13T13:16:29.699Z,5.13
2023-02-13T13:19:24.353Z,5.40
2023-02-13T13:22:12.716Z,6.00
2023-02-13T13:25:08.368Z,7.23
2023-02-13T13:27:44.673Z,4.93
2023-02-13T13:30:17.463Z,7.67
2023-02-13T13:32:45.165Z,5.53
2023-02-13T13:35:16.587Z,6.97
2023-02-13T13:38:03.078Z,7.27
2023-02-13T13:40:42.461Z,6.57
2023-02-13T13:43:36.480Z,6.43
2023-02-13T13:46:07.373Z,6.37
2023-02-13T13:49:01.423Z,5.63
2023-02-13T13:51:28.863Z,9.37
2023-02-13T13:54:08.506Z,8.13
2023-02-13T13:56:54.038Z,8.50
2023-02-13T13:59:42.232Z,5.70
2023-02-13T14:02:19.028Z,6.37
2023-02-13T14:05:19.060Z,13.97
2023-02-13T14:07:47.820Z,19.70
2023-02-13T14:10:21.368Z,15.23
2023-02-13T14:13:08.286Z,10.10
2023-02-13T14:15:38.552Z,6.67
2023-02-13T14:18:12.298Z,8.40
2023-02-13T14:20:50.527Z,16.70
2023-02-13T14:23:19.417Z,8.53
2023-02-13T14:25:46.789Z,12.57
2023-02-13T14:28:27.234Z,7.70
2023-02-13T14:31:10.351Z,18.23
2023-02-13T14:33:37.998Z,7.97
2023-02-13T14:36:07.818Z,7.20
2023-02-13T14:38:36.293Z,6.13
2023-02-13T14:41:04.704Z,10.93
2023-02-13T14:43:50.580Z,6.80
2023-02-13T14:46:48.016Z,8.50
2023-02-13T14:49:33.848Z,7.03
2023-02-13T14:52:06.368Z,7.00
2023-02-13T14:55:13.784Z,6.83
2023-02-13T14:57:43.794Z,6.80
2023-02-13T15:00:32.400Z,9.10
2023-02-13T15:03:19.313Z,8.13
2023-02-13T15:05:51.554Z,7.27
2023-02-13T15:08:21.674Z,8.77
2023-02-13T15:10:53.710Z,6.80
2023-02-13T15:13:34.740Z,6.90
2023-02-13T15:16:10.360Z,5.30
2023-02-13T15:18:45.207Z,6.37
2023-02-13T15:21:17.150Z,9.53
2023-02-13T15:23:44.560Z,10.30
2023-02-13T15:26:21.053Z,9.00
2023-02-13T15:29:11.410Z,6.80
2023-02-13T15:31:41.618Z,6.93
2023-02-13T15:34:27.343Z,8.60
2023-02-13T15:36:55.540Z,8.70
2023-02-13T15:39:31.231Z,10.20
2023-02-13T15:42:00.520Z,7.60
2023-02-13T15:44:33.142Z,8.63
2023-02-13T15:47:07.254Z,6.87
2023-02-13T15:49:44.064Z,8.83
2023-02-13T15:52:35.187Z,6.90
2023-02-13T15:55:02.699Z,7.00
2023-02-13T15:57:30.243Z,7.83
2023-02-13T15:59:58.045Z,7.07
2023-02-13T16:02:46.611Z,6.70
2023-02-13T16:05:14.900Z,7.97
2023-02-13T16:07:53.551Z,7.37
2023-02-13T16:10:32.335Z,7.07
2023-02-13T16:13:00.899Z,7.87
2023-02-13T16:15:30.019Z,7.63
2023-02-13T16:17:57.509Z,6.60
2023-02-13T16:20:26.110Z,9.13
2023-02-13T16:22:56.502Z,6.77
2023-02-13T16:25:31.038Z,7.70
2023-02-13T16:28:00.738Z,7.20
2023-02-13T16:30:35.062Z,7.73
2023-02-13T16:33:15.278Z,11.53
2023-02-13T16:35:53.262Z,8.40
2023-02-13T16:38:40.291Z,9.30
2023-02-13T16:41:08.462Z,9.27
2023-02-13T16:43:45.229Z,10.83
2023-02-13T16:46:35.239Z,8.57
2023-02-13T16:49:07.459Z,9.17
2023-02-13T16:51:57.428Z,9.70
2023-02-13T16:54:32.897Z,11.47
2023-02-13T16:57:06.588Z,14.47
2023-02-13T16:59:54.369Z,16.17
2023-02-13T17:02:29.533Z,17.63
2023-02-13T17:05:08.946Z,13.47
2023-02-13T17:07:41.281Z,12.50
2023-02-13T17:10:34.153Z,13.23
2023-02-13T17:13:04.359Z,15.67
2023-02-13T17:15:32.140Z,13.80
2023-02-13T17:18:00.353Z,16.10
2023-02-13T17:20:30.688Z,22.47
2023-02-13T17:22:59.521Z,27.23
2023-02-13T17:25:34.888Z,18.50
2023-02-13T17:28:13.591Z,16.53
2023-02-13T17:30:41.272Z,16.20
2023-02-13T17:33:12.377Z,9.47
2023-02-13T17:35:39.798Z,11.23
2023-02-13T17:38:08.939Z,12.87
2023-02-13T17:40:36.370Z,14.90
2023-02-13T17:43:04.004Z,12.90
2023-02-13T17:45:32.541Z,12.93
2023-02-13T17:48:00.506Z,14.90
2023-02-13T17:50:29.060Z,10.67
2023-02-13T17:52:56.865Z,10.13
2023-02-13T17:55:29.115Z,14.10
2023-02-13T17:57:56.947Z,13.03
2023-02-13T18:00:25.209Z,18.37
2023-02-13T18:02:52.493Z,16.60
2023-02-13T18:05:20.102Z,20.47
2023-02-13T18:07:47.476Z,20.20
2023-02-13T18:10:20.636Z,15.50
2023-02-13T18:12:48.439Z,13.90
2023-02-13T18:15:15.880Z,10.50
2023-02-13T18:17:43.502Z,11.30
2023-02-13T18:20:13.546Z,10.23
2023-02-13T18:22:41.256Z,9.83
2023-02-13T18:25:12.418Z,12.87
2023-02-13T18:27:40.335Z,12.63
2023-02-13T18:30:08.239Z,13.33
2023-02-13T18:32:36.259Z,14.03
2023-02-13T18:35:03.697Z,11.53
2023-02-13T18:37:31.560Z,17.27
2023-02-13T18:39:59.144Z,10.57
2023-02-13T18:42:26.900Z,12.53
2023-02-13T18:44:54.535Z,11.80
2023-02-13T18:47:21.949Z,14.90
2023-02-13T18:49:49.633Z,11.37
2023-02-13T18:52:17.387Z,13.17
2023-02-13T18:54:46.041Z,18.23
2023-02-13T18:57:14.289Z,13.33
2023-02-13T18:59:41.880Z,14.53
2023-02-13T19:02:10.604Z,16.07
2023-02-13T19:04:38.620Z,9.77
2023-02-13T19:07:06.272Z,13.00
2023-02-13T19:09:35.688Z,12.50
2023-02-13T19:12:03.014Z,12.47
2023-02-13T19:14:30.665Z,13.83
2023-02-13T19:16:58.927Z,12.47
2023-02-13T19:19:26.385Z,13.50
2023-02-13T19:21:54.433Z,13.00
2023-02-13T19:24:21.560Z,13.30
2023-02-13T19:26:49.235Z,13.07
2023-02-13T19:29:16.721Z,13.67
2023-02-13T19:31:44.416Z,10.97
2023-02-13T19:34:12.258Z,15.37
2023-02-13T19:36:39.466Z,15.33
2023-02-13T19:39:09.462Z,11.80
2023-02-13T19:41:37.114Z,16.70
2023-02-13T19:44:05.531Z,13.23
2023-02-13T19:46:33.628Z,12.83
2023-02-13T19:49:01.454Z,13.80
2023-02-13T19:51:30.955Z,14.73
2023-02-13T19:54:03.194Z,13.30
2023-02-13T19:56:32.141Z,13.93
2023-02-13T19:58:59.715Z,11.97
2023-02-13T20:01:28.440Z,12.97
2023-02-13T20:03:56.320Z,12.83
2023-02-13T20:06:28.274Z,12.40
2023-02-13T20:08:58.307Z,14.27
2023-02-13T20:11:26.381Z,14.47
2023-02-13T20:13:55.852Z,15.00
2023-02-13T20:16:24.338Z,13.33
2023-02-13T20:18:52.125Z,14.50
2023-02-13T20:21:19.645Z,12.77
2023-02-13T20:23:51.457Z,12.43
2023-02-13T20:26:18.969Z,11.60
2023-02-13T20:28:47.024Z,9.83
2023-02-13T20:31:16.130Z,9.20
2023-02-13T20:33:43.453Z,10.97
2023-02-13T20:36:15.905Z,11.23
2023-02-13T20:38:46.102Z,9.13
2023-02-13T20:41:13.735Z,10.50
2023-02-13T20:43:41.733Z,9.60
2023-02-13T20:46:10.023Z,10.87
2023-02-13T20:48:38.252Z,8.67
2023-02-13T20:51:07.659Z,9.67
2023-02-13T20:53:35.262Z,12.40
2023-02-13T20:56:13.954Z,11.53
2023-02-13T20:58:42.216Z,11.00
2023-02-13T21:01:16.441Z,9.23
2023-02-13T21:03:44.194Z,11.33
2023-02-13T21:06:11.694Z,10.37
2023-02-13T21:08:39.234Z,11.13
2023-02-13T21:11:08.292Z,9.70
2023-02-13T21:13:36.009Z,11.07
2023-02-13T21:16:12.057Z,9.63
2023-02-13T21:18:40.360Z,11.00
2023-02-13T21:21:08.521Z,11.83
2023-02-13T21:23:37.046Z,12.50
2023-02-13T21:26:13.495Z,9.47
2023-02-13T21:28:41.384Z,11.20
2023-02-13T21:31:16.929Z,11.53
2023-02-13T21:33:45.159Z,12.23
2023-02-13T21:36:13.149Z,10.83
2023-02-13T21:38:41.154Z,12.93
2023-02-13T21:41:13.769Z,12.70
2023-02-13T21:43:42.497Z,12.10
2023-02-13T21:46:13.901Z,13.10
2023-02-13T21:48:41.536Z,13.30
2023-02-13T21:51:13.970Z,11.90
2023-02-13T21:53:41.275Z,9.83
2023-02-13T21:56:11.342Z,11.50
2023-02-13T21:58:39.691Z,13.47
2023-02-13T22:01:25.967Z,10.30
2023-02-13T22:04:00.944Z,10.33
2023-02-13T22:06:29.805Z,11.60
2023-02-13T22:08:58.287Z,12.03
2023-02-13T22:11:26.279Z,14.53
2023-02-13T22:13:58.151Z,14.07
2023-02-13T22:16:25.839Z,11.27
2023-02-13T22:18:53.350Z,12.10
2023-02-13T22:21:22.738Z,11.63
2023-02-13T22:23:50.711Z,11.73
2023-02-13T22:26:34.973Z,12.10
2023-02-13T22:29:06.243Z,15.30
2023-02-13T22:31:33.870Z,12.53
2023-02-13T22:34:04.389Z,10.17
2023-02-13T22:36:33.579Z,10.67
2023-02-13T22:39:01.711Z,11.00
2023-02-13T22:41:29.620Z,10.37
2023-02-13T22:43:57.292Z,11.07
2023-02-13T22:46:26.870Z,10.63
2023-02-13T22:48:54.281Z,10.87
2023-02-13T22:51:27.062Z,12.97
2023-02-13T22:53:55.372Z,10.53
2023-02-13T22:56:23.401Z,11.90
2023-02-13T22:58:51.256Z,11.17
2023-02-13T23:01:20.465Z,10.60
2023-02-13T23:03:47.762Z,10.60
2023-02-13T23:06:15.538Z,10.50
2023-02-13T23:08:43.719Z,10.67
2023-02-13T23:11:34.602Z,9.70
2023-02-13T23:14:02.269Z,11.13
2023-02-13T23:16:49.998Z,12.30
2023-02-13T23:19:17.176Z,14.33
2023-02-13T23:21:44.655Z,12.00
2023-02-13T23:24:12.258Z,12.07
2023-02-13T23:26:39.391Z,11.93
2023-02-13T23:29:06.895Z,12.23
2023-02-13T23:31:34.328Z,13.27
2023-02-13T23:34:01.845Z,12.50
2023-02-13T23:36:29.537Z,11.57
2023-02-13T23:38:56.908Z,13.97
2023-02-13T23:41:24.424Z,12.80
2023-02-13T23:43:51.742Z,12.50
2023-02-13T23:46:19.199Z,11.27
2023-02-13T23:48:47.210Z,13.23
2023-02-13T23:51:14.713Z,10.87
2023-02-13T23:53:42.234Z,12.43
2023-02-13T23:56:10.273Z,12.23
2023-02-13T23:58:38.300Z,12.83
